sensor_id;sensor_type;location;lat;lon;timestamp;P1;durP1;ratioP1;P2;durP2;ratioP2
64854;SDS011;51321;50.428;8.378;2023-04-16T00:01:05;6.40;;;5.40;;
64854;SDS011;51321;50.428;8.378;2023-04-16T00:03:46;7.95;;;5.22;;
64854;SDS011;51321;50.428;8.378;2023-04-16T00:06:28;7.32;;;5.63;;
64854;SDS011;51321;50.428;8.378;2023-04-16T00:09:11;9.07;;;5.95;;
64854;SDS011;51321;50.428;8.378;2023-04-16T00:11:52;6.47;;;5.07;;
64854;SDS011;51321;50.428;8.378;2023-04-16T00:14:33;9.20;;;5.40;;
64854;SDS011;51321;50.428;8.378;2023-04-16T00:17:14;7.38;;;5.28;;
64854;SDS011;51321;50.428;8.378;2023-04-16T00:19:55;6.07;;;4.60;;
64854;SDS011;51321;50.428;8.378;2023-04-16T00:22:37;8.93;;;5.20;;
64854;SDS011;51321;50.428;8.378;2023-04-16T00:25:20;6.28;;;4.97;;
64854;SDS011;51321;50.428;8.378;2023-04-16T00:28:00;7.20;;;5.18;;
64854;SDS011;51321;50.428;8.378;2023-04-16T00:30:42;6.80;;;5.10;;
64854;SDS011;51321;50.428;8.378;2023-04-16T00:33:24;8.15;;;4.82;;
64854;SDS011;51321;50.428;8.378;2023-04-16T00:36:05;5.75;;;4.68;;
64854;SDS011;51321;50.428;8.378;2023-04-16T00:38:46;6.20;;;5.20;;
64854;SDS011;51321;50.428;8.378;2023-04-16T00:41:30;7.22;;;5.18;;
64854;SDS011;51321;50.428;8.378;2023-04-16T00:44:10;8.30;;;5.68;;
64854;SDS011;51321;50.428;8.378;2023-04-16T00:46:53;5.50;;;4.75;;
64854;SDS011;51321;50.428;8.378;2023-04-16T00:49:34;6.57;;;5.55;;
64854;SDS011;51321;50.428;8.378;2023-04-16T00:52:16;8.00;;;5.35;;
64854;SDS011;51321;50.428;8.378;2023-04-16T00:54:58;6.97;;;5.72;;
64854;SDS011;51321;50.428;8.378;2023-04-16T00:57:42;7.43;;;5.03;;
64854;SDS011;51321;50.428;8.378;2023-04-16T01:00:23;7.85;;;5.68;;
64854;SDS011;51321;50.428;8.378;2023-04-16T01:03:06;9.57;;;6.73;;
64854;SDS011;51321;50.428;8.378;2023-04-16T01:05:48;8.10;;;5.97;;
64854;SDS011;51321;50.428;8.378;2023-04-16T01:08:30;7.30;;;6.00;;
64854;SDS011;51321;50.428;8.378;2023-04-16T01:11:11;8.27;;;6.78;;
64854;SDS011;51321;50.428;8.378;2023-04-16T01:13:54;8.15;;;6.57;;
64854;SDS011;51321;50.428;8.378;2023-04-16T01:19:16;8.18;;;6.18;;
64854;SDS011;51321;50.428;8.378;2023-04-16T01:22:01;7.97;;;5.47;;
64854;SDS011;51321;50.428;8.378;2023-04-16T01:27:08;8.80;;;6.68;;
64854;SDS011;51321;50.428;8.378;2023-04-16T01:29:49;7.65;;;5.90;;
64854;SDS011;51321;50.428;8.378;2023-04-16T01:32:35;8.75;;;5.68;;
64854;SDS011;51321;50.428;8.378;2023-04-16T01:35:17;8.80;;;6.80;;
64854;SDS011;51321;50.428;8.378;2023-04-16T01:37:59;8.63;;;6.18;;
64854;SDS011;51321;50.428;8.378;2023-04-16T01:40:40;6.90;;;5.97;;
64854;SDS011;51321;50.428;8.378;2023-04-16T01:43:21;7.22;;;6.03;;
64854;SDS011;51321;50.428;8.378;2023-04-16T01:46:11;7.95;;;5.82;;
64854;SDS011;51321;50.428;8.378;2023-04-16T01:48:54;8.15;;;6.10;;
64854;SDS011;51321;50.428;8.378;2023-04-16T01:51:35;8.40;;;6.53;;
64854;SDS011;51321;50.428;8.378;2023-04-16T01:54:18;8.05;;;6.35;;
64854;SDS011;51321;50.428;8.378;2023-04-16T01:57:00;8.18;;;6.38;;
64854;SDS011;51321;50.428;8.378;2023-04-16T01:59:41;9.07;;;6.90;;
64854;SDS011;51321;50.428;8.378;2023-04-16T02:02:22;8.07;;;6.55;;
64854;SDS011;51321;50.428;8.378;2023-04-16T02:05:07;9.70;;;6.25;;
64854;SDS011;51321;50.428;8.378;2023-04-16T02:07:48;10.07;;;7.82;;
64854;SDS011;51321;50.428;8.378;2023-04-16T02:10:30;7.97;;;7.00;;
64854;SDS011;51321;50.428;8.378;2023-04-16T02:13:11;10.00;;;7.13;;
64854;SDS011;51321;50.428;8.378;2023-04-16T02:15:52;10.38;;;7.40;;
64854;SDS011;51321;50.428;8.378;2023-04-16T02:18:47;11.80;;;8.15;;
64854;SDS011;51321;50.428;8.378;2023-04-16T02:21:30;9.45;;;7.82;;
64854;SDS011;51321;50.428;8.378;2023-04-16T02:24:11;10.02;;;7.70;;
64854;SDS011;51321;50.428;8.378;2023-04-16T02:26:56;9.38;;;7.10;;
64854;SDS011;51321;50.428;8.378;2023-04-16T02:29:37;8.57;;;7.13;;
64854;SDS011;51321;50.428;8.378;2023-04-16T02:32:25;9.93;;;6.93;;
64854;SDS011;51321;50.428;8.378;2023-04-16T02:35:06;9.25;;;7.50;;
64854;SDS011;51321;50.428;8.378;2023-04-16T02:37:50;10.05;;;7.28;;
64854;SDS011;51321;50.428;8.378;2023-04-16T02:40:31;8.27;;;7.20;;
64854;SDS011;51321;50.428;8.378;2023-04-16T02:43:14;9.13;;;6.97;;
64854;SDS011;51321;50.428;8.378;2023-04-16T02:45:55;10.82;;;8.32;;
64854;SDS011;51321;50.428;8.378;2023-04-16T02:48:36;8.98;;;7.40;;
64854;SDS011;51321;50.428;8.378;2023-04-16T02:51:18;11.75;;;9.02;;
64854;SDS011;51321;50.428;8.378;2023-04-16T02:53:59;8.68;;;7.57;;
64854;SDS011;51321;50.428;8.378;2023-04-16T02:56:41;9.50;;;7.57;;
64854;SDS011;51321;50.428;8.378;2023-04-16T02:59:26;10.40;;;7.80;;
64854;SDS011;51321;50.428;8.378;2023-04-16T03:02:07;10.15;;;8.20;;
64854;SDS011;51321;50.428;8.378;2023-04-16T03:04:51;9.90;;;8.27;;
64854;SDS011;51321;50.428;8.378;2023-04-16T03:07:32;10.13;;;8.18;;
64854;SDS011;51321;50.428;8.378;2023-04-16T03:10:13;11.18;;;8.40;;
64854;SDS011;51321;50.428;8.378;2023-04-16T03:12:54;12.20;;;8.30;;
64854;SDS011;51321;50.428;8.378;2023-04-16T03:15:36;9.50;;;8.20;;
64854;SDS011;51321;50.428;8.378;2023-04-16T03:18:17;11.93;;;9.40;;
64854;SDS011;51321;50.428;8.378;2023-04-16T03:21:01;10.00;;;8.43;;
64854;SDS011;51321;50.428;8.378;2023-04-16T03:23:45;11.15;;;8.10;;
64854;SDS011;51321;50.428;8.378;2023-04-16T03:26:26;11.85;;;8.45;;
64854;SDS011;51321;50.428;8.378;2023-04-16T03:29:10;10.68;;;7.88;;
64854;SDS011;51321;50.428;8.378;2023-04-16T03:31:52;9.75;;;7.85;;
64854;SDS011;51321;50.428;8.378;2023-04-16T03:34:35;11.20;;;8.82;;
64854;SDS011;51321;50.428;8.378;2023-04-16T03:37:16;8.57;;;7.60;;
64854;SDS011;51321;50.428;8.378;2023-04-16T03:39:57;9.43;;;7.30;;
64854;SDS011;51321;50.428;8.378;2023-04-16T03:42:38;9.95;;;7.18;;
64854;SDS011;51321;50.428;8.378;2023-04-16T03:45:19;9.13;;;7.47;;
64854;SDS011;51321;50.428;8.378;2023-04-16T03:50:45;8.23;;;6.35;;
64854;SDS011;51321;50.428;8.378;2023-04-16T03:53:28;9.90;;;6.78;;
64854;SDS011;51321;50.428;8.378;2023-04-16T03:56:09;7.35;;;6.55;;
64854;SDS011;51321;50.428;8.378;2023-04-16T03:58:50;8.63;;;6.72;;
64854;SDS011;51321;50.428;8.378;2023-04-16T04:01:31;8.18;;;6.43;;
64854;SDS011;51321;50.428;8.378;2023-04-16T04:04:13;7.10;;;5.88;;
64854;SDS011;51321;50.428;8.378;2023-04-16T04:06:54;9.57;;;6.28;;
64854;SDS011;51321;50.428;8.378;2023-04-16T04:09:37;8.48;;;5.95;;
64854;SDS011;51321;50.428;8.378;2023-04-16T04:12:19;7.47;;;6.05;;
64854;SDS011;51321;50.428;8.378;2023-04-16T04:15:00;6.95;;;5.43;;
64854;SDS011;51321;50.428;8.378;2023-04-16T04:17:44;6.13;;;5.47;;
64854;SDS011;51321;50.428;8.378;2023-04-16T04:20:27;7.32;;;4.90;;
64854;SDS011;51321;50.428;8.378;2023-04-16T04:23:08;7.78;;;6.13;;
64854;SDS011;51321;50.428;8.378;2023-04-16T04:25:49;6.75;;;5.35;;
64854;SDS011;51321;50.428;8.378;2023-04-16T04:28:34;6.30;;;5.00;;
64854;SDS011;51321;50.428;8.378;2023-04-16T04:31:16;7.40;;;4.97;;
64854;SDS011;51321;50.428;8.378;2023-04-16T04:33:57;6.55;;;5.65;;
64854;SDS011;51321;50.428;8.378;2023-04-16T04:36:40;6.43;;;5.13;;
64854;SDS011;51321;50.428;8.378;2023-04-16T04:42:02;7.55;;;5.60;;
64854;SDS011;51321;50.428;8.378;2023-04-16T04:44:44;6.97;;;5.95;;
64854;SDS011;51321;50.428;8.378;2023-04-16T04:47:26;8.00;;;6.20;;
64854;SDS011;51321;50.428;8.378;2023-04-16T04:50:07;8.60;;;6.78;;
64854;SDS011;51321;50.428;8.378;2023-04-16T04:52:50;9.35;;;6.25;;
64854;SDS011;51321;50.428;8.378;2023-04-16T04:58:15;8.13;;;6.10;;
64854;SDS011;51321;50.428;8.378;2023-04-16T05:00:55;8.13;;;6.72;;
64854;SDS011;51321;50.428;8.378;2023-04-16T05:03:36;8.40;;;6.47;;
64854;SDS011;51321;50.428;8.378;2023-04-16T05:06:17;7.65;;;6.80;;
64854;SDS011;51321;50.428;8.378;2023-04-16T05:08:59;7.30;;;6.50;;
64854;SDS011;51321;50.428;8.378;2023-04-16T05:11:40;7.53;;;6.00;;
64854;SDS011;51321;50.428;8.378;2023-04-16T05:14:22;8.25;;;6.90;;
64854;SDS011;51321;50.428;8.378;2023-04-16T05:17:02;8.32;;;6.50;;
64854;SDS011;51321;50.428;8.378;2023-04-16T05:19:44;8.30;;;6.85;;
64854;SDS011;51321;50.428;8.378;2023-04-16T05:22:24;10.00;;;7.10;;
64854;SDS011;51321;50.428;8.378;2023-04-16T05:25:07;8.40;;;6.50;;
64854;SDS011;51321;50.428;8.378;2023-04-16T05:27:49;8.02;;;6.38;;
64854;SDS011;51321;50.428;8.378;2023-04-16T05:30:32;7.78;;;6.53;;
64854;SDS011;51321;50.428;8.378;2023-04-16T05:33:12;8.10;;;6.75;;
64854;SDS011;51321;50.428;8.378;2023-04-16T05:35:59;8.40;;;6.85;;
64854;SDS011;51321;50.428;8.378;2023-04-16T05:38:40;8.77;;;7.18;;
64854;SDS011;51321;50.428;8.378;2023-04-16T05:41:23;9.18;;;7.05;;
64854;SDS011;51321;50.428;8.378;2023-04-16T05:44:05;9.05;;;7.38;;
64854;SDS011;51321;50.428;8.378;2023-04-16T05:46:48;9.57;;;7.70;;
64854;SDS011;51321;50.428;8.378;2023-04-16T05:49:29;7.25;;;6.22;;
64854;SDS011;51321;50.428;8.378;2023-04-16T05:52:10;8.57;;;7.20;;
64854;SDS011;51321;50.428;8.378;2023-04-16T05:54:51;8.10;;;6.95;;
64854;SDS011;51321;50.428;8.378;2023-04-16T05:57:34;13.05;;;7.20;;
64854;SDS011;51321;50.428;8.378;2023-04-16T06:00:14;10.00;;;8.27;;
64854;SDS011;51321;50.428;8.378;2023-04-16T06:02:57;11.10;;;7.60;;
64854;SDS011;51321;50.428;8.378;2023-04-16T06:05:40;10.13;;;8.18;;
64854;SDS011;51321;50.428;8.378;2023-04-16T06:08:23;9.60;;;7.97;;
64854;SDS011;51321;50.428;8.378;2023-04-16T06:11:05;9.80;;;8.32;;
64854;SDS011;51321;50.428;8.378;2023-04-16T06:13:53;9.48;;;7.85;;
64854;SDS011;51321;50.428;8.378;2023-04-16T06:16:41;9.73;;;8.30;;
64854;SDS011;51321;50.428;8.378;2023-04-16T06:19:32;10.25;;;8.70;;
64854;SDS011;51321;50.428;8.378;2023-04-16T06:22:30;12.25;;;9.10;;
64854;SDS011;51321;50.428;8.378;2023-04-16T06:25:19;12.20;;;9.13;;
64854;SDS011;51321;50.428;8.378;2023-04-16T06:28:02;10.93;;;8.52;;
64854;SDS011;51321;50.428;8.378;2023-04-16T06:30:47;8.73;;;7.57;;
64854;SDS011;51321;50.428;8.378;2023-04-16T06:33:34;10.43;;;8.35;;
64854;SDS011;51321;50.428;8.378;2023-04-16T06:36:21;10.15;;;8.13;;
64854;SDS011;51321;50.428;8.378;2023-04-16T06:39:05;10.32;;;8.70;;
64854;SDS011;51321;50.428;8.378;2023-04-16T06:41:49;9.57;;;8.15;;
64854;SDS011;51321;50.428;8.378;2023-04-16T06:44:30;10.68;;;8.35;;
64854;SDS011;51321;50.428;8.378;2023-04-16T06:47:12;11.05;;;8.35;;
64854;SDS011;51321;50.428;8.378;2023-04-16T06:49:57;9.10;;;7.68;;
64854;SDS011;51321;50.428;8.378;2023-04-16T06:55:23;11.48;;;9.25;;
64854;SDS011;51321;50.428;8.378;2023-04-16T06:58:08;10.50;;;8.30;;
64854;SDS011;51321;50.428;8.378;2023-04-16T07:00:49;10.25;;;8.18;;
64854;SDS011;51321;50.428;8.378;2023-04-16T07:03:33;10.68;;;7.60;;
64854;SDS011;51321;50.428;8.378;2023-04-16T07:06:17;9.75;;;7.63;;
64854;SDS011;51321;50.428;8.378;2023-04-16T07:09:01;10.32;;;8.73;;
64854;SDS011;51321;50.428;8.378;2023-04-16T07:11:42;10.15;;;8.35;;
64854;SDS011;51321;50.428;8.378;2023-04-16T07:14:24;9.98;;;8.30;;
64854;SDS011;51321;50.428;8.378;2023-04-16T07:17:13;10.77;;;8.13;;
64854;SDS011;51321;50.428;8.378;2023-04-16T07:19:56;13.60;;;9.82;;
64854;SDS011;51321;50.428;8.378;2023-04-16T07:22:37;11.98;;;9.25;;
64854;SDS011;51321;50.428;8.378;2023-04-16T07:25:21;11.55;;;9.68;;
64854;SDS011;51321;50.428;8.378;2023-04-16T07:28:02;11.25;;;9.13;;
64854;SDS011;51321;50.428;8.378;2023-04-16T07:30:43;11.80;;;8.98;;
64854;SDS011;51321;50.428;8.378;2023-04-16T07:36:08;11.68;;;8.93;;
64854;SDS011;51321;50.428;8.378;2023-04-16T07:38:50;11.43;;;9.07;;
64854;SDS011;51321;50.428;8.378;2023-04-16T07:41:31;13.43;;;9.40;;
64854;SDS011;51321;50.428;8.378;2023-04-16T07:44:12;10.73;;;8.52;;
64854;SDS011;51321;50.428;8.378;2023-04-16T07:46:53;12.20;;;10.02;;
64854;SDS011;51321;50.428;8.378;2023-04-16T07:49:34;13.13;;;10.25;;
64854;SDS011;51321;50.428;8.378;2023-04-16T07:52:19;10.38;;;9.07;;
64854;SDS011;51321;50.428;8.378;2023-04-16T07:55:00;14.00;;;10.73;;
64854;SDS011;51321;50.428;8.378;2023-04-16T07:57:41;12.60;;;10.32;;
64854;SDS011;51321;50.428;8.378;2023-04-16T08:00:22;11.00;;;9.73;;
64854;SDS011;51321;50.428;8.378;2023-04-16T08:03:04;13.32;;;10.48;;
64854;SDS011;51321;50.428;8.378;2023-04-16T08:05:45;12.20;;;9.52;;
64854;SDS011;51321;50.428;8.378;2023-04-16T08:08:27;12.32;;;9.68;;
64854;SDS011;51321;50.428;8.378;2023-04-16T08:11:11;13.45;;;10.18;;
64854;SDS011;51321;50.428;8.378;2023-04-16T08:13:51;12.50;;;9.93;;
64854;SDS011;51321;50.428;8.378;2023-04-16T08:16:32;12.60;;;9.73;;
64854;SDS011;51321;50.428;8.378;2023-04-16T08:19:13;11.23;;;9.55;;
64854;SDS011;51321;50.428;8.378;2023-04-16T08:21:54;12.48;;;9.80;;
64854;SDS011;51321;50.428;8.378;2023-04-16T08:24:37;10.38;;;9.15;;
64854;SDS011;51321;50.428;8.378;2023-04-16T08:27:19;12.35;;;10.32;;
64854;SDS011;51321;50.428;8.378;2023-04-16T08:30:00;11.30;;;9.50;;
64854;SDS011;51321;50.428;8.378;2023-04-16T08:32:41;10.75;;;7.88;;
64854;SDS011;51321;50.428;8.378;2023-04-16T08:35:22;14.02;;;10.15;;
64854;SDS011;51321;50.428;8.378;2023-04-16T08:38:03;11.25;;;9.07;;
64854;SDS011;51321;50.428;8.378;2023-04-16T08:40:46;10.70;;;8.80;;
64854;SDS011;51321;50.428;8.378;2023-04-16T08:43:28;11.38;;;9.25;;
64854;SDS011;51321;50.428;8.378;2023-04-16T08:46:17;11.88;;;9.40;;
64854;SDS011;51321;50.428;8.378;2023-04-16T08:49:01;13.10;;;9.27;;
64854;SDS011;51321;50.428;8.378;2023-04-16T08:51:48;12.05;;;9.50;;
64854;SDS011;51321;50.428;8.378;2023-04-16T08:54:33;10.25;;;8.02;;
64854;SDS011;51321;50.428;8.378;2023-04-16T08:57:19;11.77;;;9.27;;
64854;SDS011;51321;50.428;8.378;2023-04-16T09:00:05;10.85;;;8.68;;
64854;SDS011;51321;50.428;8.378;2023-04-16T09:02:48;12.15;;;9.48;;
64854;SDS011;51321;50.428;8.378;2023-04-16T09:05:30;12.13;;;10.32;;
64854;SDS011;51321;50.428;8.378;2023-04-16T09:08:13;26.00;;;18.38;;
64854;SDS011;51321;50.428;8.378;2023-04-16T09:10:53;11.98;;;9.85;;
64854;SDS011;51321;50.428;8.378;2023-04-16T09:13:37;11.07;;;8.38;;
64854;SDS011;51321;50.428;8.378;2023-04-16T09:16:20;9.80;;;7.80;;
64854;SDS011;51321;50.428;8.378;2023-04-16T09:19:01;10.90;;;8.30;;
64854;SDS011;51321;50.428;8.378;2023-04-16T09:21:43;9.15;;;7.15;;
64854;SDS011;51321;50.428;8.378;2023-04-16T09:24:27;10.60;;;8.20;;
64854;SDS011;51321;50.428;8.378;2023-04-16T09:27:08;10.77;;;7.95;;
64854;SDS011;51321;50.428;8.378;2023-04-16T09:29:56;9.05;;;7.72;;
64854;SDS011;51321;50.428;8.378;2023-04-16T09:32:37;10.07;;;8.13;;
64854;SDS011;51321;50.428;8.378;2023-04-16T09:35:18;13.30;;;9.50;;
64854;SDS011;51321;50.428;8.378;2023-04-16T09:37:59;10.43;;;8.70;;
64854;SDS011;51321;50.428;8.378;2023-04-16T09:40:40;8.30;;;7.22;;
64854;SDS011;51321;50.428;8.378;2023-04-16T09:43:21;9.95;;;8.90;;
64854;SDS011;51321;50.428;8.378;2023-04-16T09:46:04;12.35;;;8.30;;
64854;SDS011;51321;50.428;8.378;2023-04-16T09:48:45;11.25;;;7.85;;
64854;SDS011;51321;50.428;8.378;2023-04-16T09:51:26;11.60;;;8.82;;
64854;SDS011;51321;50.428;8.378;2023-04-16T09:54:16;12.13;;;8.95;;
64854;SDS011;51321;50.428;8.378;2023-04-16T09:56:59;9.18;;;8.07;;
64854;SDS011;51321;50.428;8.378;2023-04-16T09:59:40;9.77;;;7.63;;
64854;SDS011;51321;50.428;8.378;2023-04-16T10:02:26;9.20;;;7.95;;
64854;SDS011;51321;50.428;8.378;2023-04-16T10:05:10;9.95;;;8.05;;
64854;SDS011;51321;50.428;8.378;2023-04-16T10:07:58;10.45;;;8.82;;
64854;SDS011;51321;50.428;8.378;2023-04-16T10:10:40;11.13;;;7.72;;
64854;SDS011;51321;50.428;8.378;2023-04-16T10:13:21;10.80;;;8.55;;
64854;SDS011;51321;50.428;8.378;2023-04-16T10:16:06;11.90;;;8.90;;
64854;SDS011;51321;50.428;8.378;2023-04-16T10:18:49;10.10;;;8.88;;
64854;SDS011;51321;50.428;8.378;2023-04-16T10:21:29;11.35;;;9.32;;
64854;SDS011;51321;50.428;8.378;2023-04-16T10:24:11;9.85;;;8.38;;
64854;SDS011;51321;50.428;8.378;2023-04-16T10:26:55;10.30;;;8.52;;
64854;SDS011;51321;50.428;8.378;2023-04-16T10:29:37;10.15;;;8.35;;
64854;SDS011;51321;50.428;8.378;2023-04-16T10:32:18;10.50;;;7.88;;
64854;SDS011;51321;50.428;8.378;2023-04-16T10:35:08;10.68;;;8.18;;
64854;SDS011;51321;50.428;8.378;2023-04-16T10:37:55;9.85;;;7.95;;
64854;SDS011;51321;50.428;8.378;2023-04-16T10:40:36;11.57;;;8.65;;
64854;SDS011;51321;50.428;8.378;2023-04-16T10:43:17;10.73;;;7.90;;
64854;SDS011;51321;50.428;8.378;2023-04-16T10:46:10;11.45;;;8.75;;
64854;SDS011;51321;50.428;8.378;2023-04-16T10:48:59;9.00;;;7.18;;
64854;SDS011;51321;50.428;8.378;2023-04-16T10:51:43;8.23;;;7.18;;
64854;SDS011;51321;50.428;8.378;2023-04-16T10:54:33;8.13;;;7.32;;
64854;SDS011;51321;50.428;8.378;2023-04-16T10:57:16;8.27;;;7.30;;
64854;SDS011;51321;50.428;8.378;2023-04-16T10:59:58;10.65;;;8.48;;
64854;SDS011;51321;50.428;8.378;2023-04-16T11:02:39;8.60;;;7.63;;
64854;SDS011;51321;50.428;8.378;2023-04-16T11:05:20;11.02;;;8.60;;
64854;SDS011;51321;50.428;8.378;2023-04-16T11:08:07;10.48;;;7.70;;
64854;SDS011;51321;50.428;8.378;2023-04-16T11:10:54;9.23;;;7.20;;
64854;SDS011;51321;50.428;8.378;2023-04-16T11:13:38;9.27;;;7.63;;
64854;SDS011;51321;50.428;8.378;2023-04-16T11:16:23;10.57;;;8.25;;
64854;SDS011;51321;50.428;8.378;2023-04-16T11:19:06;11.73;;;7.65;;
64854;SDS011;51321;50.428;8.378;2023-04-16T11:21:47;8.68;;;7.60;;
64854;SDS011;51321;50.428;8.378;2023-04-16T11:24:31;9.43;;;7.55;;
64854;SDS011;51321;50.428;8.378;2023-04-16T11:27:12;8.93;;;7.97;;
64854;SDS011;51321;50.428;8.378;2023-04-16T11:29:57;14.80;;;10.23;;
64854;SDS011;51321;50.428;8.378;2023-04-16T11:32:39;8.95;;;7.00;;
64854;SDS011;51321;50.428;8.378;2023-04-16T11:35:21;8.93;;;7.30;;
64854;SDS011;51321;50.428;8.378;2023-04-16T11:38:01;10.65;;;8.40;;
64854;SDS011;51321;50.428;8.378;2023-04-16T11:40:48;10.38;;;8.25;;
64854;SDS011;51321;50.428;8.378;2023-04-16T11:43:29;10.52;;;7.88;;
64854;SDS011;51321;50.428;8.378;2023-04-16T11:48:53;10.57;;;7.53;;
64854;SDS011;51321;50.428;8.378;2023-04-16T11:51:38;11.00;;;8.30;;
64854;SDS011;51321;50.428;8.378;2023-04-16T11:54:19;11.45;;;8.00;;
64854;SDS011;51321;50.428;8.378;2023-04-16T11:57:02;9.30;;;7.10;;
64854;SDS011;51321;50.428;8.378;2023-04-16T12:02:35;8.90;;;7.43;;
64854;SDS011;51321;50.428;8.378;2023-04-16T12:05:28;10.77;;;7.82;;
64854;SDS011;51321;50.428;8.378;2023-04-16T12:08:10;12.07;;;7.88;;
64854;SDS011;51321;50.428;8.378;2023-04-16T12:10:52;10.85;;;8.60;;
64854;SDS011;51321;50.428;8.378;2023-04-16T12:13:36;10.75;;;9.05;;
64854;SDS011;51321;50.428;8.378;2023-04-16T12:16:18;10.15;;;8.23;;
64854;SDS011;51321;50.428;8.378;2023-04-16T12:18:59;9.35;;;8.05;;
64854;SDS011;51321;50.428;8.378;2023-04-16T12:21:42;9.00;;;7.93;;
64854;SDS011;51321;50.428;8.378;2023-04-16T12:24:25;11.35;;;8.15;;
64854;SDS011;51321;50.428;8.378;2023-04-16T12:27:06;10.60;;;8.10;;
64854;SDS011;51321;50.428;8.378;2023-04-16T12:30:02;9.18;;;7.55;;
64854;SDS011;51321;50.428;8.378;2023-04-16T12:32:45;10.25;;;7.93;;
64854;SDS011;51321;50.428;8.378;2023-04-16T12:35:30;9.00;;;7.22;;
64854;SDS011;51321;50.428;8.378;2023-04-16T12:38:11;8.23;;;7.30;;
64854;SDS011;51321;50.428;8.378;2023-04-16T12:40:53;8.55;;;7.20;;
64854;SDS011;51321;50.428;8.378;2023-04-16T12:43:35;9.13;;;7.65;;
64854;SDS011;51321;50.428;8.378;2023-04-16T12:46:17;8.00;;;6.43;;
64854;SDS011;51321;50.428;8.378;2023-04-16T12:48:58;7.50;;;6.70;;
64854;SDS011;51321;50.428;8.378;2023-04-16T12:51:39;7.45;;;6.55;;
64854;SDS011;51321;50.428;8.378;2023-04-16T12:54:19;6.43;;;5.80;;
64854;SDS011;51321;50.428;8.378;2023-04-16T12:57:01;7.85;;;6.30;;
64854;SDS011;51321;50.428;8.378;2023-04-16T12:59:42;6.95;;;6.10;;
64854;SDS011;51321;50.428;8.378;2023-04-16T13:02:25;9.25;;;6.05;;
64854;SDS011;51321;50.428;8.378;2023-04-16T13:07:47;6.65;;;5.80;;
64854;SDS011;51321;50.428;8.378;2023-04-16T13:10:28;6.75;;;5.25;;
64854;SDS011;51321;50.428;8.378;2023-04-16T13:13:09;5.40;;;4.63;;
64854;SDS011;51321;50.428;8.378;2023-04-16T13:15:53;6.70;;;6.05;;
64854;SDS011;51321;50.428;8.378;2023-04-16T13:18:35;6.88;;;6.18;;
64854;SDS011;51321;50.428;8.378;2023-04-16T13:21:17;6.68;;;5.57;;
64854;SDS011;51321;50.428;8.378;2023-04-16T13:23:58;6.30;;;5.40;;
64854;SDS011;51321;50.428;8.378;2023-04-16T13:26:41;7.10;;;5.53;;
64854;SDS011;51321;50.428;8.378;2023-04-16T13:29:22;5.40;;;4.90;;
64854;SDS011;51321;50.428;8.378;2023-04-16T13:32:03;6.30;;;5.68;;
64854;SDS011;51321;50.428;8.378;2023-04-16T13:34:46;8.77;;;6.28;;
64854;SDS011;51321;50.428;8.378;2023-04-16T13:37:30;7.30;;;6.07;;
64854;SDS011;51321;50.428;8.378;2023-04-16T13:40:12;7.47;;;5.90;;
64854;SDS011;51321;50.428;8.378;2023-04-16T13:42:53;9.32;;;6.25;;
64854;SDS011;51321;50.428;8.378;2023-04-16T13:45:34;8.55;;;7.43;;
64854;SDS011;51321;50.428;8.378;2023-04-16T13:48:16;7.83;;;6.30;;
64854;SDS011;51321;50.428;8.378;2023-04-16T13:50:58;5.57;;;4.97;;
64854;SDS011;51321;50.428;8.378;2023-04-16T13:53:39;7.80;;;5.68;;
64854;SDS011;51321;50.428;8.378;2023-04-16T13:56:23;6.18;;;5.57;;
64854;SDS011;51321;50.428;8.378;2023-04-16T13:59:04;5.88;;;4.75;;
64854;SDS011;51321;50.428;8.378;2023-04-16T14:01:46;10.77;;;6.93;;
64854;SDS011;51321;50.428;8.378;2023-04-16T14:04:27;9.23;;;6.93;;
64854;SDS011;51321;50.428;8.378;2023-04-16T14:07:09;7.95;;;6.50;;
64854;SDS011;51321;50.428;8.378;2023-04-16T14:09:50;7.28;;;6.15;;
64854;SDS011;51321;50.428;8.378;2023-04-16T14:12:31;6.68;;;5.68;;
64854;SDS011;51321;50.428;8.378;2023-04-16T14:15:12;5.88;;;5.28;;
64854;SDS011;51321;50.428;8.378;2023-04-16T14:17:54;7.03;;;5.85;;
64854;SDS011;51321;50.428;8.378;2023-04-16T14:20:42;6.22;;;5.25;;
64854;SDS011;51321;50.428;8.378;2023-04-16T14:23:24;7.93;;;6.47;;
64854;SDS011;51321;50.428;8.378;2023-04-16T14:26:05;7.35;;;5.75;;
64854;SDS011;51321;50.428;8.378;2023-04-16T14:28:46;6.85;;;6.10;;
64854;SDS011;51321;50.428;8.378;2023-04-16T14:31:27;8.50;;;6.43;;
64854;SDS011;51321;50.428;8.378;2023-04-16T14:34:08;7.57;;;6.10;;
64854;SDS011;51321;50.428;8.378;2023-04-16T14:36:49;6.65;;;5.80;;
64854;SDS011;51321;50.428;8.378;2023-04-16T14:39:31;7.60;;;6.32;;
64854;SDS011;51321;50.428;8.378;2023-04-16T14:42:12;6.32;;;5.43;;
64854;SDS011;51321;50.428;8.378;2023-04-16T14:44:54;8.38;;;6.00;;
64854;SDS011;51321;50.428;8.378;2023-04-16T14:47:35;8.30;;;6.43;;
64854;SDS011;51321;50.428;8.378;2023-04-16T14:50:23;7.70;;;6.20;;
64854;SDS011;51321;50.428;8.378;2023-04-16T14:53:04;6.55;;;5.68;;
64854;SDS011;51321;50.428;8.378;2023-04-16T14:55:47;8.45;;;7.07;;
64854;SDS011;51321;50.428;8.378;2023-04-16T14:58:28;6.90;;;6.22;;
64854;SDS011;51321;50.428;8.378;2023-04-16T15:01:09;6.78;;;6.07;;
64854;SDS011;51321;50.428;8.378;2023-04-16T15:03:53;9.98;;;7.28;;
64854;SDS011;51321;50.428;8.378;2023-04-16T15:06:34;8.57;;;6.65;;
64854;SDS011;51321;50.428;8.378;2023-04-16T15:09:15;8.15;;;7.00;;
64854;SDS011;51321;50.428;8.378;2023-04-16T15:11:58;8.38;;;6.97;;
64854;SDS011;51321;50.428;8.378;2023-04-16T15:14:39;8.45;;;7.10;;
64854;SDS011;51321;50.428;8.378;2023-04-16T15:17:21;11.03;;;7.70;;
64854;SDS011;51321;50.428;8.378;2023-04-16T15:20:02;9.07;;;6.53;;
64854;SDS011;51321;50.428;8.378;2023-04-16T15:22:46;9.40;;;6.95;;
64854;SDS011;51321;50.428;8.378;2023-04-16T15:25:26;10.63;;;8.18;;
64854;SDS011;51321;50.428;8.378;2023-04-16T15:28:09;8.77;;;7.53;;
64854;SDS011;51321;50.428;8.378;2023-04-16T15:33:31;8.77;;;7.20;;
64854;SDS011;51321;50.428;8.378;2023-04-16T15:36:12;9.43;;;7.63;;
64854;SDS011;51321;50.428;8.378;2023-04-16T15:38:54;9.23;;;7.57;;
64854;SDS011;51321;50.428;8.378;2023-04-16T15:41:38;10.45;;;8.02;;
64854;SDS011;51321;50.428;8.378;2023-04-16T15:44:20;9.82;;;7.53;;
64854;SDS011;51321;50.428;8.378;2023-04-16T15:49:46;11.23;;;8.55;;
64854;SDS011;51321;50.428;8.378;2023-04-16T15:52:26;11.77;;;9.77;;
64854;SDS011;51321;50.428;8.378;2023-04-16T15:55:08;10.57;;;8.98;;
64854;SDS011;51321;50.428;8.378;2023-04-16T15:57:49;12.10;;;8.80;;
64854;SDS011;51321;50.428;8.378;2023-04-16T16:00:31;14.25;;;9.73;;
64854;SDS011;51321;50.428;8.378;2023-04-16T16:03:12;13.55;;;9.75;;
64854;SDS011;51321;50.428;8.378;2023-04-16T16:05:53;10.85;;;8.95;;
64854;SDS011;51321;50.428;8.378;2023-04-16T16:08:34;11.27;;;9.68;;
64854;SDS011;51321;50.428;8.378;2023-04-16T16:11:16;13.07;;;9.63;;
64854;SDS011;51321;50.428;8.378;2023-04-16T16:13:57;12.15;;;9.00;;
64854;SDS011;51321;50.428;8.378;2023-04-16T16:16:42;11.70;;;9.13;;
64854;SDS011;51321;50.428;8.378;2023-04-16T16:19:22;10.52;;;9.02;;
64854;SDS011;51321;50.428;8.378;2023-04-16T16:22:03;10.35;;;9.25;;
64854;SDS011;51321;50.428;8.378;2023-04-16T16:24:44;13.75;;;9.63;;
64854;SDS011;51321;50.428;8.378;2023-04-16T16:27:27;11.10;;;9.73;;
64854;SDS011;51321;50.428;8.378;2023-04-16T16:30:08;13.73;;;10.70;;
64854;SDS011;51321;50.428;8.378;2023-04-16T16:32:51;11.70;;;9.52;;
64854;SDS011;51321;50.428;8.378;2023-04-16T16:35:32;11.93;;;10.18;;
64854;SDS011;51321;50.428;8.378;2023-04-16T16:38:13;11.38;;;9.63;;
64854;SDS011;51321;50.428;8.378;2023-04-16T16:40:54;11.25;;;9.40;;
64854;SDS011;51321;50.428;8.378;2023-04-16T16:43:35;12.75;;;9.05;;